createdAt,value
2022-11-17T00:00:41.201Z,84.94873047
2022-11-17T00:01:42.240Z,85.04638672
2022-11-17T00:02:42.797Z,84.74121094
2022-11-17T00:03:43.227Z,84.8449707
2022-11-17T00:04:44.156Z,84.74121094
2022-11-17T00:06:14.775Z,84.63745117
2022-11-17T00:07:15.408Z,84.74121094
2022-11-17T00:08:15.697Z,84.8449707
2022-11-17T00:09:16.228Z,84.8449707
2022-11-17T00:10:16.766Z,84.94873047
2022-11-17T00:11:18.236Z,85.04638672
2022-11-17T00:12:22.540Z,84.94873047
2022-11-17T00:13:19.132Z,84.74121094
2022-11-17T00:14:19.655Z,84.74121094
2022-11-17T00:15:20.113Z,84.63745117
2022-11-17T00:16:20.588Z,84.74121094
2022-11-17T00:17:21.070Z,84.8449707
2022-11-17T00:18:21.535Z,85.04638672
2022-11-17T00:19:22.038Z,85.25390625
2022-11-17T00:20:23.231Z,85.35766602
2022-11-17T00:21:23.978Z,85.35766602
2022-11-17T00:22:24.762Z,85.35766602
2022-11-17T00:23:25.200Z,85.35766602
2022-11-17T00:24:25.622Z,85.46142578
2022-11-17T00:25:27.068Z,85.55908203
2022-11-17T00:26:27.533Z,85.46142578
2022-11-17T00:27:28.045Z,85.46142578
2022-11-17T00:28:28.472Z,85.35766602
2022-11-17T00:29:28.906Z,85.25390625
2022-11-17T00:30:30.312Z,85.04638672
2022-11-17T00:31:31.714Z,84.8449707
2022-11-17T00:32:32.201Z,84.63745117
2022-11-17T00:33:32.951Z,84.63745117
2022-11-17T00:34:33.053Z,84.63745117
2022-11-17T00:35:33.528Z,84.8815918
2022-11-17T00:36:34.046Z,85.19287109
2022-11-17T00:37:34.665Z,85.19287109
2022-11-17T00:38:35.203Z,84.78393555
2022-11-17T00:39:35.666Z,84.68017578
2022-11-17T00:40:36.125Z,84.98535156
2022-11-17T00:41:37.201Z,84.98535156
2022-11-17T00:42:37.751Z,84.98535156
2022-11-17T00:43:38.298Z,84.71679688
2022-11-17T00:44:38.808Z,84.92431641
2022-11-17T00:45:40.193Z,85.12573242
2022-11-17T00:46:40.610Z,85.33325195
2022-11-17T00:47:41.160Z,85.54077148
2022-11-17T00:48:41.590Z,85.63842773
2022-11-17T00:49:42.033Z,85.43701172
2022-11-17T00:50:42.487Z,85.54077148
2022-11-17T00:52:13.926Z,85.54077148
2022-11-17T00:53:14.392Z,85.54077148
2022-11-17T00:54:14.866Z,85.33325195
2022-11-17T00:55:15.384Z,85.22949219
2022-11-17T00:56:15.745Z,85.12573242
2022-11-17T00:57:16.170Z,84.92431641
2022-11-17T00:58:17.205Z,84.61303711
2022-11-17T00:59:17.684Z,84.57641602
2022-11-17T01:00:18.119Z,84.27124023
2022-11-17T01:01:19.530Z,84.16748047
2022-11-17T01:02:19.952Z,84.27124023
2022-11-17T01:03:20.506Z,84.36889648
2022-11-17T01:04:20.799Z,84.57641602
2022-11-17T01:05:22.569Z,84.57641602
2022-11-17T01:06:23.040Z,84.57641602
2022-11-17T01:07:23.529Z,84.27124023
2022-11-17T01:08:24.020Z,83.95996094
2022-11-17T01:09:24.364Z,83.95996094
2022-11-17T01:10:24.824Z,84.0637207
2022-11-17T01:11:25.991Z,84.0637207
2022-11-17T01:12:26.469Z,83.85620117
2022-11-17T01:13:27.051Z,83.75854492
2022-11-17T01:14:27.348Z,83.85620117
2022-11-17T01:15:27.745Z,83.85620117
2022-11-17T01:16:28.252Z,83.85620117
2022-11-17T01:17:28.684Z,83.95996094
2022-11-17T01:18:29.249Z,84.16748047
2022-11-17T01:19:29.542Z,84.16748047
2022-11-17T01:20:29.952Z,83.95996094
2022-11-17T01:21:31.014Z,83.85620117
2022-11-17T01:22:31.517Z,83.65478516
2022-11-17T01:23:32.086Z,83.75854492
2022-11-17T01:24:32.398Z,83.55102539
2022-11-17T01:25:32.890Z,83.24584961
2022-11-17T01:26:33.376Z,83.14208984
2022-11-17T01:27:34.468Z,83.24584961
2022-11-17T01:28:34.925Z,83.44726563
2022-11-17T01:29:35.323Z,83.44726563
2022-11-17T01:30:35.730Z,83.34350586
2022-11-17T01:31:36.669Z,83.34350586
2022-11-17T01:32:37.775Z,83.34350586
2022-11-17T01:33:38.335Z,83.34350586
2022-11-17T01:34:38.708Z,83.34350586
2022-11-17T01:35:39.130Z,83.34350586
2022-11-17T01:36:40.185Z,83.55102539
2022-11-17T01:37:40.627Z,83.44726563
2022-11-17T01:38:41.080Z,83.55102539
2022-11-17T01:39:41.529Z,83.65478516
2022-11-17T01:40:41.979Z,83.44726563
2022-11-17T01:42:13.532Z,83.44726563
2022-11-17T01:43:13.997Z,83.44726563
2022-11-17T01:44:14.426Z,83.55102539
2022-11-17T01:45:14.879Z,83.44726563
2022-11-17T01:46:15.332Z,83.55102539
2022-11-17T01:47:15.727Z,83.95996094
2022-11-17T01:48:16.793Z,84.0637207
2022-11-17T01:49:17.184Z,84.0637207
2022-11-17T01:50:17.632Z,84.16748047
2022-11-17T01:51:18.980Z,84.27124023
2022-11-17T01:52:19.394Z,84.0637207
2022-11-17T01:53:19.874Z,84.0637207
2022-11-17T01:54:20.254Z,84.16748047
2022-11-17T01:55:20.747Z,84.16748047
2022-11-17T01:56:21.230Z,83.95996094
2022-11-17T01:57:21.673Z,83.95996094
2022-11-17T01:58:22.134Z,84.36889648
2022-11-17T01:59:23.165Z,84.61303711
2022-11-17T02:00:23.613Z,84.82055664
2022-11-17T02:01:25.042Z,85.02807617
2022-11-17T02:02:25.488Z,85.22949219
2022-11-17T02:03:25.963Z,85.22949219
2022-11-17T02:04:26.349Z,85.22949219
2022-11-17T02:05:26.761Z,85.19287109
2022-11-17T02:06:27.233Z,85.29663086
2022-11-17T02:07:27.758Z,85.49804688
2022-11-17T02:08:28.780Z,85.60180664
2022-11-17T02:09:29.170Z,85.70556641
2022-11-17T02:10:29.599Z,85.70556641
2022-11-17T02:11:30.985Z,85.70556641
2022-11-17T02:12:31.447Z,85.70556641
2022-11-17T02:13:32.222Z,85.60180664
2022-11-17T02:14:32.386Z,85.60180664
2022-11-17T02:15:32.852Z,85.60180664
2022-11-17T02:16:33.262Z,85.49804688
2022-11-17T02:17:33.672Z,85.39428711
2022-11-17T02:18:34.175Z,85.29663086
2022-11-17T02:19:34.589Z,85.39428711
2022-11-17T02:20:35.068Z,85.39428711
2022-11-17T02:21:36.478Z,85.25390625
2022-11-17T02:22:36.882Z,85.15014648
2022-11-17T02:23:37.740Z,85.15014648
2022-11-17T02:24:37.780Z,85.15014648
2022-11-17T02:25:38.251Z,85.25390625
2022-11-17T02:26:38.669Z,85.25390625
2022-11-17T02:27:39.089Z,85.25390625
2022-11-17T02:28:40.467Z,85.25390625
2022-11-17T02:29:40.939Z,85.25390625
2022-11-17T02:30:41.399Z,85.15014648
2022-11-17T02:31:42.983Z,85.04638672
2022-11-17T02:33:13.664Z,84.8449707
2022-11-17T02:34:14.018Z,84.94873047
2022-11-17T02:35:14.558Z,85.15014648
2022-11-17T02:36:15.018Z,85.35766602
2022-11-17T02:37:15.452Z,85.55908203
2022-11-17T02:38:15.909Z,85.6628418
2022-11-17T02:39:16.281Z,85.76660156
2022-11-17T02:40:17.475Z,85.76660156
2022-11-17T02:41:17.957Z,85.87036133
2022-11-17T02:42:19.215Z,85.76660156
2022-11-17T02:43:19.653Z,85.87036133
2022-11-17T02:44:20.072Z,85.87036133
2022-11-17T02:45:20.509Z,85.87036133
2022-11-17T02:46:20.912Z,85.97412109
2022-11-17T02:47:21.366Z,85.97412109
2022-11-17T02:48:21.833Z,85.87036133
2022-11-17T02:49:22.241Z,85.87036133
2022-11-17T02:50:27.905Z,85.87036133
2022-11-17T02:51:23.139Z,85.97412109
2022-11-17T02:52:24.219Z,86.07177734
2022-11-17T02:53:24.687Z,86.17553711
2022-11-17T02:54:25.125Z,86.27929688
2022-11-17T02:55:25.542Z,86.27929688
2022-11-17T02:56:25.948Z,86.27929688
2022-11-17T02:57:26.349Z,86.27929688
2022-11-17T02:58:26.883Z,86.17553711
2022-11-17T02:59:28.248Z,86.07177734
2022-11-17T03:00:28.682Z,86.07177734
2022-11-17T03:01:29.109Z,86.07177734
2022-11-17T03:02:30.191Z,86.17553711
2022-11-17T03:03:30.661Z,86.17553711
2022-11-17T03:04:31.111Z,86.27929688
2022-11-17T03:05:31.585Z,86.27929688
2022-11-17T03:06:32.057Z,86.38305664
2022-11-17T03:07:32.543Z,86.38305664
2022-11-17T03:08:33.690Z,86.48071289
2022-11-17T03:09:34.153Z,86.58447266
2022-11-17T03:10:34.584Z,86.68823242
2022-11-17T03:11:35.007Z,86.68823242
2022-11-17T03:12:36.187Z,86.79199219
2022-11-17T03:13:36.903Z,86.68823242
2022-11-17T03:14:37.006Z,86.58447266
2022-11-17T03:15:37.466Z,86.58447266
2022-11-17T03:16:37.883Z,86.58447266
2022-11-17T03:17:38.313Z,86.58447266
2022-11-17T03:18:38.784Z,86.38305664
2022-11-17T03:19:39.157Z,86.38305664
2022-11-17T03:20:39.567Z,86.38305664
2022-11-17T03:21:40.072Z,86.38305664
2022-11-17T03:22:41.652Z,85.97412109
2022-11-17T03:24:12.334Z,86.07177734
2022-11-17T03:25:12.730Z,85.97412109
2022-11-17T03:26:13.189Z,85.97412109
2022-11-17T03:27:13.694Z,85.97412109
2022-11-17T03:28:15.017Z,85.97412109
2022-11-17T03:29:15.502Z,85.97412109
2022-11-17T03:30:15.885Z,86.17553711
2022-11-17T03:31:16.293Z,86.41967773
2022-11-17T03:32:16.787Z,86.31591797
2022-11-17T03:33:17.211Z,86.41967773
2022-11-17T03:34:18.245Z,86.5234375
2022-11-17T03:35:18.641Z,86.5234375
2022-11-17T03:36:19.051Z,86.62719727
2022-11-17T03:37:19.460Z,86.62719727
2022-11-17T03:38:20.494Z,86.73095703
2022-11-17T03:39:20.973Z,86.82861328
2022-11-17T03:40:21.380Z,86.62719727
2022-11-17T03:41:21.808Z,86.5234375
2022-11-17T03:42:22.977Z,86.41967773
2022-11-17T03:43:23.433Z,86.38305664
2022-11-17T03:44:23.891Z,86.38305664
2022-11-17T03:45:24.322Z,86.48071289
2022-11-17T03:46:24.808Z,86.58447266
2022-11-17T03:47:25.224Z,86.48071289
2022-11-17T03:48:25.642Z,86.17553711
2022-11-17T03:49:26.173Z,86.07177734
2022-11-17T03:50:26.586Z,86.07177734
2022-11-17T03:51:27.053Z,86.27929688
2022-11-17T03:52:28.209Z,86.27929688
2022-11-17T03:53:29.187Z,86.27929688
2022-11-17T03:54:29.590Z,86.27929688
2022-11-17T03:55:30.082Z,86.38305664
2022-11-17T03:56:30.525Z,86.48071289
2022-11-17T03:57:31.000Z,86.58447266
2022-11-17T03:58:31.423Z,86.58447266
2022-11-17T03:59:32.471Z,86.48071289
2022-11-17T04:00:32.873Z,86.38305664
2022-11-17T04:01:33.338Z,86.58447266
2022-11-17T04:02:34.676Z,86.79199219
2022-11-17T04:03:35.465Z,86.89575195
2022-11-17T04:04:35.502Z,86.9934082
2022-11-17T04:05:35.908Z,87.09716797
2022-11-17T04:06:36.319Z,87.20092773
2022-11-17T04:07:36.993Z,87.3046875
2022-11-17T04:08:38.212Z,87.40844727
2022-11-17T04:09:38.644Z,87.40844727
2022-11-17T04:10:39.044Z,87.40844727
2022-11-17T04:11:39.454Z,87.20092773
2022-11-17T04:13:11.429Z,86.9934082
2022-11-17T04:14:11.833Z,86.89575195
2022-11-17T04:15:12.269Z,86.79199219
2022-11-17T04:16:12.661Z,86.68823242
2022-11-17T04:17:13.078Z,86.68823242
2022-11-17T04:18:13.466Z,86.68823242
2022-11-17T04:19:14.471Z,86.68823242
2022-11-17T04:20:14.889Z,86.68823242
2022-11-17T04:21:15.285Z,86.58447266
2022-11-17T04:22:16.494Z,86.68823242
2022-11-17T04:23:16.883Z,86.68823242
2022-11-17T04:24:17.346Z,86.68823242
2022-11-17T04:25:17.794Z,86.68823242
2022-11-17T04:26:18.218Z,86.68823242
2022-11-17T04:27:18.643Z,86.68823242
2022-11-17T04:28:19.056Z,86.68823242
2022-11-17T04:29:19.487Z,86.68823242
2022-11-17T04:30:19.896Z,86.48071289
2022-11-17T04:31:20.298Z,86.5234375
2022-11-17T04:32:21.523Z,86.5234375
2022-11-17T04:33:21.887Z,86.5234375
2022-11-17T04:34:22.573Z,86.62719727
2022-11-17T04:35:22.997Z,86.73095703
2022-11-17T04:36:23.402Z,86.82861328
2022-11-17T04:37:23.846Z,86.62719727
2022-11-17T04:38:24.273Z,86.5234375
2022-11-17T04:39:24.676Z,86.5234375
2022-11-17T04:40:25.138Z,86.41967773
2022-11-17T04:41:25.579Z,86.31591797
2022-11-17T04:42:26.559Z,86.21826172
2022-11-17T04:43:26.978Z,86.11450195
2022-11-17T04:44:27.392Z,86.11450195
2022-11-17T04:45:28.500Z,86.11450195
2022-11-17T04:46:28.961Z,86.11450195
2022-11-17T04:47:29.424Z,86.31591797
2022-11-17T04:48:29.800Z,86.46240234
2022-11-17T04:49:30.297Z,86.56616211
2022-11-17T04:50:30.713Z,86.56616211
2022-11-17T04:51:31.120Z,86.56616211
2022-11-17T04:52:32.543Z,86.46240234
2022-11-17T04:53:33.416Z,86.35864258
2022-11-17T04:54:33.371Z,86.35864258
2022-11-17T04:55:33.821Z,86.25488281
2022-11-17T04:56:34.246Z,86.25488281
2022-11-17T04:57:34.731Z,86.15112305
2022-11-17T04:58:35.124Z,86.15112305
2022-11-17T04:59:36.485Z,86.15112305
2022-11-17T05:00:36.916Z,86.15112305
2022-11-17T05:01:37.338Z,86.15112305
2022-11-17T05:02:38.663Z,86.0534668
2022-11-17T05:03:38.896Z,86.0534668
2022-11-17T05:04:39.348Z,86.15112305
2022-11-17T05:05:39.761Z,86.15112305
2022-11-17T05:07:10.739Z,86.0534668
2022-11-17T05:08:11.152Z,86.15112305
2022-11-17T05:09:11.585Z,86.35864258
2022-11-17T05:10:12.045Z,86.49902344
2022-11-17T05:11:12.509Z,86.35864258
2022-11-17T05:12:12.872Z,86.25488281
2022-11-17T05:13:14.241Z,86.15112305
2022-11-17T05:14:14.621Z,86.0534668
2022-11-17T05:15:15.034Z,86.15112305
2022-11-17T05:16:15.462Z,86.25488281
2022-11-17T05:17:15.877Z,86.25488281
2022-11-17T05:18:16.480Z,86.25488281
2022-11-17T05:19:16.759Z,86.35864258
2022-11-17T05:20:17.217Z,86.25488281
2022-11-17T05:21:17.706Z,86.35864258
2022-11-17T05:22:18.160Z,86.49902344
2022-11-17T05:23:19.197Z,86.70654297
2022-11-17T05:24:19.615Z,86.81030273
2022-11-17T05:25:20.079Z,86.70654297
2022-11-17T05:26:20.538Z,86.70654297
2022-11-17T05:27:21.019Z,86.6027832
2022-11-17T05:28:21.478Z,86.49902344
2022-11-17T05:29:22.764Z,86.29760742
2022-11-17T05:30:23.190Z,86.49902344
2022-11-17T05:31:23.638Z,86.49902344
2022-11-17T05:32:24.094Z,86.29760742
2022-11-17T05:33:25.257Z,86.40136719
2022-11-17T05:34:25.689Z,86.40136719
2022-11-17T05:35:26.112Z,86.49902344
2022-11-17T05:36:26.543Z,86.49902344
2022-11-17T05:37:26.937Z,86.19384766
2022-11-17T05:38:28.022Z,86.09008789
2022-11-17T05:39:28.455Z,86.19384766
2022-11-17T05:40:28.878Z,86.29760742
2022-11-17T05:41:29.259Z,86.19384766
2022-11-17T05:42:29.672Z,86.19384766
2022-11-17T05:43:30.740Z,86.29760742
2022-11-17T05:44:31.148Z,86.49902344
2022-11-17T05:45:31.593Z,86.40136719
2022-11-17T05:46:32.004Z,86.43798828
2022-11-17T05:47:32.411Z,86.23657227
2022-11-17T05:48:32.845Z,86.23657227
2022-11-17T05:49:33.272Z,86.33422852
2022-11-17T05:50:33.702Z,86.43798828
2022-11-17T05:51:34.152Z,86.43798828
2022-11-17T05:52:34.594Z,86.33422852
2022-11-17T05:53:36.064Z,86.43798828
2022-11-17T05:54:36.162Z,86.1328125
2022-11-17T05:55:36.654Z,85.8215332
2022-11-17T05:56:37.091Z,85.8215332
2022-11-17T05:57:37.514Z,85.71777344
2022-11-17T05:58:37.980Z,85.92529297
2022-11-17T05:59:39.627Z,86.1328125
2022-11-17T06:01:10.306Z,86.1328125
2022-11-17T06:02:10.746Z,86.02905273
2022-11-17T06:03:12.007Z,86.02905273
2022-11-17T06:04:12.512Z,85.92529297
2022-11-17T06:05:18.700Z,85.71777344
2022-11-17T06:06:13.998Z,85.51635742
2022-11-17T06:07:14.548Z,85.51635742
2022-11-17T06:08:14.909Z,85.41259766
2022-11-17T06:09:15.380Z,85.41259766
2022-11-17T06:10:15.773Z,85.41259766
2022-11-17T06:11:16.168Z,85.51635742
2022-11-17T06:12:16.627Z,85.51635742
2022-11-17T06:13:17.999Z,85.71777344
2022-11-17T06:14:18.481Z,85.71777344
2022-11-17T06:15:18.892Z,85.8215332
2022-11-17T06:16:19.299Z,85.8215332
2022-11-17T06:17:22.439Z,85.92529297
2022-11-17T06:18:20.191Z,85.92529297
2022-11-17T06:19:20.625Z,86.02905273
2022-11-17T06:20:21.082Z,86.02905273
2022-11-17T06:21:21.522Z,86.02905273
2022-11-17T06:22:21.932Z,86.1328125
2022-11-17T06:23:23.507Z,86.23657227
2022-11-17T06:24:23.988Z,86.23657227
2022-11-17T06:25:24.468Z,86.23657227
2022-11-17T06:26:24.860Z,86.33422852
2022-11-17T06:27:25.305Z,86.49902344
2022-11-17T06:28:25.673Z,86.49902344
2022-11-17T06:29:26.151Z,86.40136719
2022-11-17T06:30:26.604Z,86.49902344
2022-11-17T06:31:27.040Z,86.49902344
2022-11-17T06:32:27.633Z,86.40136719
2022-11-17T06:33:28.677Z,86.40136719
2022-11-17T06:34:29.678Z,85.78491211
2022-11-17T06:35:30.129Z,85.16845703
2022-11-17T06:36:30.585Z,84.71679688
2022-11-17T06:37:31.186Z,83.89892578
2022-11-17T06:38:31.494Z,84.20410156
2022-11-17T06:39:31.924Z,84.61303711
2022-11-17T06:40:33.009Z,84.68017578
2022-11-17T06:41:33.446Z,84.8815918
2022-11-17T06:42:33.940Z,84.8815918
2022-11-17T11:53:29.842Z,76.07421875
2022-11-17T11:54:30.213Z,76.07421875
2022-11-17T11:55:31.292Z,75.9765625
2022-11-17T11:56:31.775Z,76.07421875
2022-11-17T11:57:32.261Z,75.76904297
2022-11-17T11:58:33.503Z,74.95727539
2022-11-17T11:59:33.932Z,74.54833984
2022-11-17T12:00:34.457Z,74.85351563
2022-11-17T12:02:06.567Z,73.93798828
2022-11-17T12:03:07.040Z,73.53515625
2022-11-17T12:04:07.474Z,73.6328125
2022-11-17T12:05:07.877Z,73.02246094
2022-11-17T12:06:09.256Z,72.31445313
2022-11-17T12:07:10.051Z,72.61962891
2022-11-17T12:08:10.858Z,72.82104492
2022-11-17T12:09:10.704Z,72.41210938
2022-11-17T12:10:11.139Z,71.6003418
2022-11-17T12:11:11.577Z,71.6003418
2022-11-17T12:12:12.329Z,71.19140625
2022-11-17T12:13:12.632Z,71.6003418
2022-11-17T12:14:13.484Z,71.90551758
2022-11-17T12:15:14.025Z,71.90551758
2022-11-17T12:16:14.538Z,71.80175781
2022-11-17T12:17:15.063Z,71.90551758
2022-11-17T12:18:15.560Z,72.21069336
2022-11-17T12:19:16.015Z,72.41210938
2022-11-17T12:20:16.447Z,72.71728516
2022-11-17T12:21:16.862Z,72.92480469
2022-11-17T12:22:17.325Z,73.43139648
2022-11-17T12:23:17.847Z,73.6328125
2022-11-17T12:24:18.294Z,74.14550781
2022-11-17T12:25:19.550Z,74.24316406
2022-11-17T12:26:19.986Z,74.24316406
2022-11-17T12:27:20.392Z,74.24316406
2022-11-17T12:28:21.000Z,73.77319336
2022-11-17T12:29:21.467Z,73.97460938
2022-11-17T12:30:21.967Z,74.17602539
2022-11-17T12:31:23.524Z,73.26049805
2022-11-17T12:32:24.503Z,72.55249023
2022-11-17T12:33:24.405Z,72.95532227
2022-11-17T12:34:24.870Z,72.95532227
2022-11-17T12:35:26.029Z,72.44873047
2022-11-17T12:36:30.608Z,72.14355469
2022-11-17T12:37:27.530Z,72.3449707
2022-11-17T12:38:28.585Z,72.3449707
2022-11-17T12:39:29.073Z,72.14355469
2022-11-17T12:40:29.524Z,72.03979492
2022-11-17T12:41:29.961Z,72.3449707
2022-11-17T12:42:30.586Z,72.03979492
2022-11-17T12:43:31.050Z,71.97265625
2022-11-17T12:44:32.091Z,71.97265625
2022-11-17T12:45:38.938Z,71.86889648
2022-11-17T12:46:33.985Z,72.27783203
2022-11-17T12:48:32.476Z,72.27783203
2022-11-17T12:49:05.498Z,72.3815918
2022-11-17T12:50:05.924Z,72.58300781
2022-11-17T12:51:06.915Z,72.47924805
2022-11-17T12:52:07.794Z,71.97265625
2022-11-17T12:53:08.257Z,71.97265625
2022-11-17T12:54:08.636Z,71.5637207
2022-11-17T12:55:10.820Z,71.25854492
2022-11-17T12:56:10.764Z,71.5637207
2022-11-17T12:57:11.204Z,72.17407227
2022-11-17T12:58:12.190Z,71.97265625
2022-11-17T12:59:12.839Z,71.86889648
2022-11-17T13:00:13.316Z,71.42944336
2022-11-17T13:01:14.602Z,71.83837891
2022-11-17T13:02:14.955Z,71.83837891
2022-11-17T13:03:16.293Z,71.80175781
2022-11-17T13:04:16.835Z,71.39892578
2022-11-17T13:05:17.559Z,70.88623047
2022-11-17T13:06:34.965Z,70.88623047
2022-11-17T13:07:20.407Z,71.05712891
2022-11-17T13:08:20.788Z,70.95947266
2022-11-17T13:09:21.201Z,70.95947266
2022-11-17T13:10:22.744Z,70.85571289
2022-11-17T13:11:23.625Z,70.85571289
2022-11-17T13:12:24.067Z,70.95947266
2022-11-17T13:13:25.146Z,71.39892578
2022-11-17T13:14:25.329Z,71.6003418
2022-11-17T13:15:25.765Z,71.42944336
2022-11-17T13:16:26.775Z,71.73461914
2022-11-17T13:17:27.270Z,72.47924805
2022-11-17T13:18:28.120Z,72.99194336
2022-11-17T13:19:28.680Z,73.19335938
2022-11-17T13:20:30.033Z,73.40087891
2022-11-17T13:21:30.522Z,73.09570313
2022-11-17T13:22:31.091Z,73.19335938
2022-11-17T13:23:31.629Z,73.33374023
2022-11-17T13:24:32.126Z,73.63891602
2022-11-17T13:25:32.577Z,74.14550781
2022-11-17T13:27:04.572Z,75.06103516
2022-11-17T13:28:05.640Z,75.70800781
2022-11-17T13:29:06.583Z,76.52587891
2022-11-17T13:30:07.132Z,77.13623047
2022-11-17T13:31:07.518Z,77.67944336
2022-11-17T13:32:08.042Z,77.88696289
2022-11-17T13:33:09.336Z,78.69873047
2022-11-17T13:34:09.817Z,79.04052734
2022-11-17T13:35:10.351Z,79.65698242
2022-11-17T13:36:11.789Z,80.16357422
2022-11-17T13:37:12.246Z,80.67626953
2022-11-17T13:38:12.755Z,80.57250977
2022-11-17T13:39:13.373Z,80.67626953
2022-11-17T13:40:14.019Z,81.08520508
2022-11-17T13:41:14.593Z,81.42700195
2022-11-17T13:42:15.058Z,81.32324219
2022-11-17T13:43:15.603Z,81.73217773
2022-11-17T13:44:16.395Z,81.93969727
2022-11-17T13:45:16.747Z,81.73217773
2022-11-17T13:46:17.780Z,81.97631836
2022-11-17T13:47:20.708Z,82.79418945
2022-11-17T13:48:18.833Z,83.91723633
2022-11-17T13:49:19.379Z,83.91723633
2022-11-17T13:50:19.900Z,84.11865234
2022-11-17T13:51:20.423Z,84.08203125
2022-11-17T13:52:20.870Z,83.6730957
2022-11-17T13:53:21.299Z,83.56933594
2022-11-17T13:54:21.826Z,83.22753906
2022-11-17T13:55:22.715Z,83.53271484
2022-11-17T13:56:23.810Z,83.32519531
2022-11-17T13:57:24.743Z,83.53271484
2022-11-17T13:58:26.936Z,83.1237793
2022-11-17T13:59:25.829Z,83.02001953
2022-11-17T14:00:26.331Z,82.98339844
2022-11-17T14:01:27.949Z,83.18481445
2022-11-17T14:02:28.325Z,83.48999023
2022-11-17T14:03:28.805Z,82.87963867
2022-11-17T14:04:29.321Z,83.0871582
2022-11-17T14:05:29.845Z,83.25195313
2022-11-17T14:06:31.310Z,83.45336914
2022-11-17T14:07:31.902Z,82.23266602
2022-11-17T14:08:32.232Z,81.21337891
2022-11-17T14:09:32.801Z,79.78515625
2022-11-17T14:11:03.933Z,79.98657227
2022-11-17T14:12:04.429Z,79.88891602
2022-11-17T14:13:04.906Z,79.68139648
2022-11-17T14:14:05.407Z,79.98657227
2022-11-17T14:15:05.905Z,79.07104492
2022-11-17T14:16:07.058Z,78.46069336
2022-11-17T14:17:07.566Z,78.66210938
2022-11-17T14:18:08.069Z,78.46069336
2022-11-17T14:19:08.560Z,78.35693359
2022-11-17T14:20:09.101Z,77.64282227
2022-11-17T14:21:10.287Z,77.13623047
2022-11-17T14:22:13.230Z,77.0324707
2022-11-17T14:23:11.375Z,77.13623047
2022-11-17T14:24:12.152Z,76.79443359
2022-11-17T14:25:12.282Z,76.59301758
2022-11-17T14:26:13.534Z,76.59301758
2022-11-17T14:27:14.063Z,76.59301758
2022-11-17T14:28:14.626Z,75.77514648
2022-11-17T14:29:15.096Z,75.26855469
2022-11-17T14:30:15.729Z,74.65209961
2022-11-17T14:31:16.286Z,74.82299805
2022-11-17T14:32:16.810Z,75.12817383
2022-11-17T14:33:18.312Z,74.71923828
2022-11-17T14:34:18.824Z,74.51782227
2022-11-17T14:35:19.485Z,73.19335938
2022-11-17T14:36:20.571Z,72.78442383
2022-11-17T14:37:21.080Z,73.09570313
2022-11-17T14:38:21.687Z,72.58300781
2022-11-17T14:39:22.015Z,72.68676758
2022-11-17T14:40:22.794Z,72.3815918
2022-11-17T14:41:23.307Z,72.27783203
2022-11-17T14:42:23.929Z,72.27783203
2022-11-17T14:43:25.326Z,71.77124023
2022-11-17T14:44:25.753Z,71.77124023
2022-11-17T14:45:26.236Z,71.22802734
2022-11-17T14:46:27.569Z,71.02050781
2022-11-17T14:47:28.062Z,71.32568359
2022-11-17T14:48:28.596Z,71.53320313
2022-11-17T14:49:29.018Z,71.42944336
2022-11-17T14:50:29.484Z,70.8190918
2022-11-17T14:51:30.026Z,70.8190918
2022-11-17T14:52:30.491Z,71.12426758
2022-11-17T14:53:30.965Z,71.12426758
2022-11-17T14:54:31.546Z,70.8190918
2022-11-17T14:55:31.989Z,70.71533203
2022-11-17T14:56:33.071Z,70.3125
2022-11-17T14:58:03.828Z,70.20874023
2022-11-17T14:59:04.322Z,69.39697266
2022-11-17T15:00:04.786Z,69.18945313
2022-11-17T15:01:05.269Z,69.49462891
2022-11-17T15:02:06.605Z,69.79980469
2022-11-17T15:03:07.230Z,70.10498047
2022-11-17T15:04:34.390Z,70.00732422
2022-11-17T15:05:08.115Z,69.90356445
2022-11-17T15:06:09.537Z,69.79980469
2022-11-17T15:07:10.201Z,69.90356445
2022-11-17T15:08:10.672Z,70.00732422
2022-11-17T15:09:11.187Z,70.00732422
2022-11-17T15:10:11.637Z,70.20874023
2022-11-17T15:11:12.083Z,70.3125
2022-11-17T15:12:12.660Z,70.23925781
2022-11-17T15:13:13.111Z,70.23925781
2022-11-17T15:14:14.278Z,70.0378418
2022-11-17T15:15:14.158Z,70.23925781
2022-11-17T15:16:14.644Z,70.14160156
2022-11-17T15:17:15.744Z,70.34301758
2022-11-17T15:18:16.265Z,70.64819336
2022-11-17T15:19:16.803Z,70.75195313
2022-11-17T15:20:17.309Z,70.75195313
2022-11-17T15:21:17.764Z,70.85571289
2022-11-17T15:22:18.311Z,70.85571289
2022-11-17T15:23:18.931Z,70.85571289
2022-11-17T15:24:19.499Z,70.44677734
2022-11-17T15:25:20.027Z,70.55053711
2022-11-17T15:27:31.270Z,70.64819336
2022-11-17T15:28:31.754Z,70.98999023
2022-11-17T15:30:03.551Z,70.88623047
2022-11-17T15:31:04.603Z,71.05712891
2022-11-17T15:32:05.052Z,71.16088867
2022-11-17T15:33:06.048Z,71.19140625
2022-11-17T15:34:06.526Z,71.19140625
2022-11-17T15:35:07.195Z,71.29516602
2022-11-17T15:36:07.572Z,71.29516602
2022-11-17T15:37:08.829Z,71.39282227
2022-11-17T15:38:09.317Z,71.49658203
2022-11-17T15:39:09.794Z,71.6003418
2022-11-17T15:40:12.115Z,71.6003418
2022-11-17T15:41:11.102Z,71.29516602
2022-11-17T15:42:11.681Z,71.29516602
2022-11-17T15:43:12.106Z,71.80175781
2022-11-17T15:44:12.568Z,72.10693359
2022-11-17T15:45:12.982Z,72.31445313
2022-11-17T15:46:14.277Z,72.31445313
2022-11-17T15:47:15.287Z,72.41210938
2022-11-17T15:48:18.756Z,72.82104492
2022-11-17T15:49:16.529Z,73.02246094
2022-11-17T15:50:16.653Z,73.1628418
2022-11-17T15:51:17.115Z,73.26049805
2022-11-17T15:52:30.089Z,73.46801758
2022-11-17T15:53:18.467Z,73.57177734
2022-11-17T15:54:21.012Z,73.77319336
2022-11-17T15:55:19.336Z,73.87695313
2022-11-17T15:56:19.776Z,74.07836914
2022-11-17T15:57:20.805Z,74.18212891
2022-11-17T15:58:21.249Z,74.38354492
2022-11-17T15:59:21.717Z,74.58496094
2022-11-17T16:00:22.167Z,74.7253418
2022-11-17T16:01:22.783Z,74.92675781
2022-11-17T16:02:23.193Z,75.13427734
2022-11-17T16:03:24.535Z,75.64086914
2022-11-17T16:04:25.047Z,76.04980469
2022-11-17T16:05:25.533Z,76.2512207
2022-11-17T16:06:26.608Z,76.35498047
2022-11-17T16:07:27.614Z,76.66015625
2022-11-17T16:08:28.152Z,76.69677734
2022-11-17T16:09:28.701Z,76.69677734
2022-11-17T16:10:29.311Z,76.69677734
2022-11-17T16:11:29.930Z,76.80053711
2022-11-17T16:12:30.216Z,76.80053711
2022-11-17T16:13:30.619Z,77.00195313
2022-11-17T16:14:31.207Z,77.30712891